createdAt,value
2018-11-23T00:02:21.480Z,6.40
2018-11-23T00:05:09.310Z,6.50
2018-11-23T00:07:57.615Z,6.60
2018-11-23T00:10:45.128Z,6.60
2018-11-23T00:13:32.684Z,6.60
2018-11-23T00:16:20.193Z,6.50
2018-11-23T00:19:07.741Z,6.40
2018-11-23T00:21:55.316Z,6.50
2018-11-23T00:24:42.839Z,6.50
2018-11-23T00:27:30.440Z,6.40
2018-11-23T00:30:19.344Z,6.40
2018-11-23T00:33:06.931Z,6.40
2018-11-23T00:35:54.452Z,6.40
2018-11-23T00:38:42.026Z,6.40
2018-11-23T00:41:29.844Z,6.60
2018-11-23T00:44:17.413Z,6.60
2018-11-23T00:47:04.953Z,6.60
2018-11-23T00:49:52.536Z,6.50
2018-11-23T00:52:40.706Z,6.40
2018-11-23T00:55:28.881Z,6.30
2018-11-23T00:58:16.417Z,6.40
2018-11-23T01:01:03.749Z,6.40
2018-11-23T01:03:43.939Z,6.40
2018-11-23T01:06:24.423Z,6.50
2018-11-23T01:09:04.886Z,6.30
2018-11-23T01:11:45.110Z,6.50
2018-11-23T01:14:26.058Z,6.50
2018-11-23T01:17:06.340Z,6.40
2018-11-23T01:19:46.967Z,6.50
2018-11-23T01:22:27.391Z,6.40
2018-11-23T01:25:08.053Z,6.40
2018-11-23T01:27:49.992Z,6.30
2018-11-23T01:30:31.519Z,6.30
2018-11-23T01:33:12.737Z,6.40
2018-11-23T01:35:52.930Z,6.50
2018-11-23T01:38:33.096Z,6.40
2018-11-23T01:41:13.328Z,6.40
2018-11-23T01:43:54.352Z,6.40
2018-11-23T01:46:34.617Z,6.30
2018-11-23T01:49:15.136Z,6.40
2018-11-23T01:51:56.036Z,6.40
2018-11-23T01:54:36.347Z,6.40
2018-11-23T01:57:17.337Z,6.40
2018-11-23T01:59:57.626Z,6.40
2018-11-23T02:02:37.935Z,6.40
2018-11-23T02:05:18.722Z,6.30
2018-11-23T02:07:59.758Z,6.20
2018-11-23T02:10:40.912Z,6.30
2018-11-23T02:13:21.231Z,6.30
2018-11-23T02:16:01.446Z,6.40
2018-11-23T02:18:42.153Z,6.40
2018-11-23T02:21:22.421Z,6.50
2018-11-23T02:24:02.708Z,6.40
2018-11-23T02:26:42.976Z,6.50
2018-11-23T02:29:23.398Z,6.40
2018-11-23T02:32:04.145Z,6.40
2018-11-23T02:34:45.066Z,6.40
2018-11-23T02:37:26.010Z,6.50
2018-11-23T02:40:06.497Z,6.50
2018-11-23T02:42:47.529Z,6.30
2018-11-23T02:45:28.289Z,6.20
2018-11-23T02:48:09.271Z,6.40
2018-11-23T02:50:37.395Z,6.40
2018-11-23T02:53:24.972Z,6.20
2018-11-23T02:56:12.549Z,6.30
2018-11-23T02:59:00.073Z,6.40
2018-11-23T03:01:47.653Z,6.30
2018-11-23T03:04:35.232Z,6.20
2018-11-23T03:07:22.855Z,6.30
2018-11-23T03:10:11.166Z,6.30
2018-11-23T03:12:58.690Z,6.30
2018-11-23T03:15:46.236Z,6.20
2018-11-23T03:18:33.798Z,6.40
2018-11-23T03:21:21.347Z,6.40
2018-11-23T03:24:08.886Z,6.30
2018-11-23T03:26:56.417Z,6.30
2018-11-23T03:29:44.021Z,6.40
2018-11-23T03:32:31.557Z,6.40
2018-11-23T03:35:19.621Z,6.50
2018-11-23T03:38:07.211Z,6.50
2018-11-23T03:40:54.743Z,6.40
2018-11-23T03:43:42.476Z,6.40
2018-11-23T03:46:29.989Z,6.50
2018-11-23T03:49:17.565Z,6.50
2018-11-23T03:52:05.155Z,6.50
2018-11-23T03:54:52.964Z,6.40
2018-11-23T03:57:40.534Z,6.30
2018-11-23T04:00:28.072Z,6.30
2018-11-23T04:03:15.615Z,6.30
2018-11-23T04:06:03.136Z,6.30
2018-11-23T04:08:50.701Z,6.20
2018-11-23T04:11:38.224Z,6.20
2018-11-23T04:14:25.753Z,6.20
2018-11-23T04:17:13.268Z,6.30
2018-11-23T04:19:41.324Z,6.40
2018-11-23T04:22:28.896Z,6.40
2018-11-23T04:25:16.429Z,6.30
2018-11-23T04:28:03.984Z,6.40
2018-11-23T04:30:51.537Z,6.40
2018-11-23T04:33:39.076Z,6.50
2018-11-23T04:36:26.629Z,6.50
2018-11-23T04:39:14.190Z,6.40
2018-11-23T04:42:01.978Z,6.50
2018-11-23T04:44:49.521Z,6.50
2018-11-23T04:47:37.460Z,6.40
2018-11-23T04:50:25.275Z,6.40
2018-11-23T04:53:12.816Z,6.40
2018-11-23T04:56:00.572Z,6.40
2018-11-23T04:58:48.144Z,6.20
2018-11-23T05:01:35.930Z,6.20
2018-11-23T05:04:23.485Z,6.00
2018-11-23T05:07:11.052Z,6.20
2018-11-23T05:09:58.652Z,6.30
2018-11-23T05:12:46.159Z,6.40
2018-11-23T05:15:33.721Z,6.20
2018-11-23T05:18:21.269Z,6.40
2018-11-23T05:21:08.844Z,6.30
2018-11-23T05:23:56.431Z,6.40
2018-11-23T05:26:44.100Z,6.40
2018-11-23T05:29:31.644Z,6.40
2018-11-23T05:32:19.287Z,6.30
2018-11-23T05:35:07.019Z,6.20
2018-11-23T05:37:54.607Z,6.40
2018-11-23T05:40:42.132Z,6.30
2018-11-23T05:43:29.714Z,6.40
2018-11-23T05:46:17.270Z,6.40
2018-11-23T05:49:05.042Z,6.40
2018-11-23T05:51:52.604Z,6.40
2018-11-23T05:54:40.200Z,6.30
2018-11-23T05:57:27.774Z,6.30
2018-11-23T06:00:17.497Z,6.40
2018-11-23T06:03:24.389Z,6.40
2018-11-23T06:06:12.180Z,6.40
2018-11-23T06:08:59.740Z,6.40
2018-11-23T06:11:47.305Z,6.20
2018-11-23T06:14:34.861Z,6.40
2018-11-23T06:17:22.387Z,6.40
2018-11-23T06:20:11.595Z,6.30
2018-11-23T06:22:59.218Z,6.20
2018-11-23T06:25:48.049Z,6.20
2018-11-23T06:28:35.581Z,6.20
2018-11-23T06:31:23.130Z,6.30
2018-11-23T06:34:10.700Z,6.30
2018-11-23T06:36:58.257Z,6.40
2018-11-23T06:39:45.809Z,6.30
2018-11-23T06:42:33.328Z,6.30
2018-11-23T06:45:21.225Z,6.30
2018-11-23T06:48:09.766Z,6.30
2018-11-23T06:50:57.513Z,6.30
2018-11-23T06:53:45.037Z,6.40
2018-11-23T06:56:32.641Z,6.20
2018-11-23T06:59:20.173Z,6.20
2018-11-23T07:02:07.701Z,6.30
2018-11-23T07:04:55.305Z,6.30
2018-11-23T07:07:42.844Z,6.30
2018-11-23T07:10:30.366Z,6.40
2018-11-23T07:13:18.149Z,6.20
2018-11-23T07:16:05.702Z,6.40
2018-11-23T07:18:53.336Z,6.30
2018-11-23T07:21:40.892Z,6.30
2018-11-23T07:24:28.705Z,6.30
2018-11-23T07:27:16.543Z,6.30
2018-11-23T07:29:57.204Z,6.40
2018-11-23T07:32:37.660Z,6.30
2018-11-23T07:35:17.878Z,6.20
2018-11-23T07:37:58.130Z,6.30
2018-11-23T07:40:40.576Z,6.40
2018-11-23T07:43:20.795Z,6.30
2018-11-23T07:46:00.988Z,6.20
2018-11-23T07:48:41.551Z,6.20
2018-11-23T07:51:22.383Z,6.20
2018-11-23T07:54:03.400Z,6.10
2018-11-23T07:56:43.953Z,6.10
2018-11-23T07:59:24.848Z,6.20
2018-11-23T08:02:06.078Z,6.20
2018-11-23T08:04:47.147Z,6.20
2018-11-23T08:07:27.712Z,6.20
2018-11-23T08:10:07.497Z,6.10
2018-11-23T08:12:49.283Z,6.30
2018-11-23T08:15:29.691Z,6.40
2018-11-23T08:18:09.989Z,6.50
2018-11-23T08:20:51.035Z,6.40
2018-11-23T08:23:31.457Z,6.30
2018-11-23T08:26:11.868Z,6.40
2018-11-23T08:28:52.819Z,6.30
2018-11-23T08:31:33.796Z,6.30
2018-11-23T08:34:14.662Z,6.40
2018-11-23T08:36:55.668Z,6.40
2018-11-23T08:39:36.649Z,6.30
2018-11-23T08:42:17.293Z,6.30
2018-11-23T08:44:58.084Z,6.40
2018-11-23T08:47:36.957Z,6.30
2018-11-23T08:53:19.722Z,6.30
2018-11-23T08:56:07.272Z,6.40
2018-11-23T08:58:55.046Z,6.30
2018-11-23T09:01:42.871Z,6.30
2018-11-23T09:04:30.389Z,6.30
2018-11-23T09:07:18.191Z,6.50
2018-11-23T09:10:06.729Z,6.50
2018-11-23T09:12:54.988Z,6.30
2018-11-23T09:15:42.543Z,6.30
2018-11-23T09:18:30.417Z,6.40
2018-11-23T09:21:17.942Z,6.60
2018-11-23T09:24:05.697Z,6.70
2018-11-23T09:26:53.235Z,6.60
2018-11-23T09:29:40.784Z,6.30
2018-11-23T09:32:28.601Z,6.40
2018-11-23T09:35:16.191Z,6.40
2018-11-23T09:38:03.768Z,6.20
2018-11-23T09:40:51.338Z,6.40
2018-11-23T09:43:38.915Z,6.30
2018-11-23T09:46:26.439Z,6.60
2018-11-23T09:49:14.001Z,6.50
2018-11-23T09:52:01.566Z,6.70
2018-11-23T09:54:49.147Z,6.60
2018-11-23T09:57:36.789Z,6.60
2018-11-23T10:00:43.544Z,6.60
2018-11-23T10:03:31.649Z,6.60
2018-11-23T10:06:19.138Z,6.50
2018-11-23T10:08:47.436Z,6.30
2018-11-23T10:11:34.974Z,6.50
2018-11-23T10:14:22.539Z,6.50
2018-11-23T10:17:10.091Z,6.50
2018-11-23T10:19:38.180Z,6.60
2018-11-23T10:22:25.803Z,6.30
2018-11-23T10:25:14.599Z,6.50
2018-11-23T10:28:02.122Z,6.30
2018-11-23T10:30:49.773Z,6.30
2018-11-23T10:33:30.227Z,6.10
2018-11-23T10:36:10.422Z,6.20
2018-11-23T10:38:50.674Z,6.30
2018-11-23T10:41:30.958Z,6.40
2018-11-23T10:44:11.537Z,6.40
2018-11-23T10:46:52.103Z,6.30
2018-11-23T10:49:32.550Z,6.30
2018-11-23T10:52:13.046Z,6.20
2018-11-23T10:54:53.184Z,6.30
2018-11-23T10:57:33.754Z,6.40
2018-11-23T11:00:33.847Z,6.30
2018-11-23T11:03:34.035Z,6.50
2018-11-23T11:06:33.632Z,6.50
2018-11-23T11:09:13.858Z,6.30
2018-11-23T11:11:54.566Z,6.40
2018-11-23T11:17:47.608Z,6.50
2018-11-23T11:20:28.062Z,6.60
2018-11-23T11:23:08.544Z,6.50
2018-11-23T11:25:49.033Z,6.50
2018-11-23T11:28:29.244Z,6.50
2018-11-23T11:31:09.596Z,6.50
2018-11-23T11:33:50.371Z,6.40
2018-11-23T11:36:18.492Z,6.60
2018-11-23T11:39:25.504Z,6.70
2018-11-23T11:42:13.060Z,6.60
2018-11-23T11:45:00.583Z,6.50
2018-11-23T11:47:48.524Z,6.60
2018-11-23T11:50:36.102Z,6.70
2018-11-23T11:53:23.624Z,6.70
2018-11-23T11:56:11.232Z,6.70
2018-11-23T11:58:59.036Z,6.70
2018-11-23T12:01:46.689Z,6.70
2018-11-23T12:04:34.246Z,6.80
2018-11-23T12:07:22.056Z,6.60
2018-11-23T12:10:29.037Z,6.70
2018-11-23T12:13:16.892Z,6.70
2018-11-23T12:16:04.444Z,6.70
2018-11-23T12:18:52.052Z,6.70
2018-11-23T12:21:39.609Z,6.70
2018-11-23T12:24:27.174Z,6.70
2018-11-23T12:27:14.740Z,6.80
2018-11-23T12:30:02.487Z,6.80
2018-11-23T12:32:51.001Z,6.90
2018-11-23T12:35:38.553Z,6.90
2018-11-23T12:38:26.097Z,6.70
2018-11-23T12:47:01.188Z,6.70
2018-11-23T12:49:49.002Z,6.80
2018-11-23T12:52:36.596Z,7.20
2018-11-23T12:55:24.222Z,7.20
2018-11-23T12:58:11.825Z,7.10
2018-11-23T13:00:59.376Z,7.10
2018-11-23T13:03:46.929Z,7.00
2018-11-23T13:06:34.929Z,7.10
2018-11-23T13:09:22.740Z,7.00
2018-11-23T13:12:10.524Z,7.10
2018-11-23T13:14:58.095Z,7.00
2018-11-23T13:17:45.626Z,7.00
2018-11-23T13:20:33.330Z,7.00
2018-11-23T13:23:20.812Z,7.00
2018-11-23T13:26:08.357Z,7.10
2018-11-23T13:28:55.898Z,7.10
2018-11-23T13:31:43.490Z,7.10
2018-11-23T13:34:31.018Z,7.10
2018-11-23T13:37:19.043Z,7.30
2018-11-23T13:40:07.445Z,7.40
2018-11-23T13:42:56.138Z,7.50
2018-11-23T13:45:43.716Z,7.80
2018-11-23T13:48:31.296Z,7.70
2018-11-23T13:51:18.834Z,7.60
2018-11-23T13:54:06.352Z,7.30
2018-11-23T13:56:53.904Z,7.30
2018-11-23T13:59:44.023Z,7.40
2018-11-23T14:02:31.793Z,7.40
2018-11-23T14:05:20.900Z,7.30
2018-11-23T14:08:08.381Z,7.30
2018-11-23T14:10:56.395Z,7.20
2018-11-23T14:13:44.171Z,7.20
2018-11-23T14:16:31.703Z,7.10
2018-11-23T14:19:19.483Z,7.20
2018-11-23T14:22:07.162Z,7.20
2018-11-23T14:24:54.711Z,7.30
2018-11-23T14:27:42.822Z,7.30
2018-11-23T14:33:25.950Z,7.50
2018-11-23T14:36:13.525Z,7.40
2018-11-23T14:39:01.420Z,7.50
2018-11-23T14:41:49.084Z,7.50
2018-11-23T14:44:36.747Z,7.40
2018-11-23T14:47:24.527Z,7.30
2018-11-23T14:50:14.021Z,7.20
2018-11-23T14:52:45.797Z,7.20
2018-11-23T14:55:33.590Z,7.30
2018-11-23T14:58:21.439Z,7.00
2018-11-23T15:01:09.004Z,7.10
2018-11-23T15:03:56.879Z,7.10
2018-11-23T15:06:44.531Z,7.10
2018-11-23T15:09:32.115Z,7.10
2018-11-23T15:12:22.445Z,7.00
2018-11-23T15:15:12.241Z,6.80
2018-11-23T15:18:00.328Z,6.80
2018-11-23T15:20:47.897Z,6.90
2018-11-23T15:23:35.485Z,6.90
2018-11-23T15:26:23.213Z,7.00
2018-11-23T15:29:10.823Z,6.90
2018-11-23T15:32:17.603Z,6.90
2018-11-23T15:35:05.339Z,6.90
2018-11-23T15:37:52.928Z,7.00
2018-11-23T15:40:40.810Z,6.90
2018-11-23T15:43:28.334Z,7.10
2018-11-23T15:46:15.908Z,7.00
2018-11-23T15:49:03.487Z,7.00
2018-11-23T15:51:51.075Z,7.10
2018-11-23T15:54:38.713Z,7.10
2018-11-23T15:57:26.375Z,7.10
2018-11-23T16:00:15.301Z,7.10
2018-11-23T16:03:02.906Z,7.00
2018-11-23T16:05:50.467Z,7.00
2018-11-23T16:08:38.022Z,7.20
2018-11-23T16:11:25.645Z,7.20
2018-11-23T16:14:13.425Z,7.10
2018-11-23T16:17:20.252Z,7.10
2018-11-23T16:20:13.607Z,7.20
2018-11-23T16:23:02.759Z,7.20
2018-11-23T16:25:51.125Z,7.10
2018-11-23T16:28:41.513Z,7.00
2018-11-23T16:31:29.184Z,7.20
2018-11-23T16:34:16.839Z,7.30
2018-11-23T16:36:45.451Z,7.30
2018-11-23T16:39:33.056Z,7.30
2018-11-23T16:42:20.774Z,7.40
2018-11-23T16:45:09.662Z,7.50
2018-11-23T16:47:58.190Z,7.20
2018-11-23T16:50:45.908Z,7.30
2018-11-23T16:53:33.718Z,7.20
2018-11-23T16:56:21.300Z,7.00
2018-11-23T16:59:08.843Z,7.10
2018-11-23T17:01:56.727Z,7.00
2018-11-23T17:04:44.517Z,7.00
2018-11-23T17:07:32.476Z,7.00
2018-11-23T17:10:20.392Z,7.10
2018-11-23T17:13:08.063Z,7.00
2018-11-23T17:15:55.680Z,6.90
2018-11-23T17:18:43.427Z,7.00
2018-11-23T17:21:31.047Z,7.00
2018-11-23T17:24:18.722Z,7.10
2018-11-23T17:27:06.458Z,7.10
2018-11-23T17:29:53.879Z,6.90
2018-11-23T17:32:41.587Z,6.80
2018-11-23T17:35:29.462Z,7.00
2018-11-23T17:38:17.311Z,7.00
2018-11-23T17:41:05.135Z,7.00
2018-11-23T17:43:52.807Z,7.20
2018-11-23T17:46:40.358Z,7.20
2018-11-23T17:49:28.117Z,7.20
2018-11-23T17:52:15.782Z,7.20
2018-11-23T17:55:03.385Z,7.20
2018-11-23T17:57:51.688Z,7.30
2018-11-23T18:00:39.734Z,7.10
2018-11-23T18:03:27.042Z,7.20
2018-11-23T18:06:14.579Z,7.20
2018-11-23T18:09:02.844Z,7.20
2018-11-23T18:11:50.480Z,7.30
2018-11-23T18:14:38.125Z,7.20
2018-11-23T18:17:25.691Z,7.30
2018-11-23T18:20:32.542Z,7.30
2018-11-23T18:23:01.269Z,7.20
2018-11-23T18:26:08.293Z,7.10
2018-11-23T18:28:56.086Z,7.10
2018-11-23T18:31:43.643Z,6.90
2018-11-23T18:34:24.189Z,7.00
2018-11-23T18:37:04.652Z,7.00
2018-11-23T18:39:45.352Z,7.20
2018-11-23T18:45:20.203Z,7.00
2018-11-23T18:51:14.759Z,7.10
2018-11-23T18:54:02.281Z,6.90
2018-11-23T18:56:49.831Z,6.90
2018-11-23T18:59:37.393Z,7.00
2018-11-23T19:02:24.949Z,7.00
2018-11-23T19:05:31.941Z,7.00
2018-11-23T19:08:19.523Z,7.00
2018-11-23T19:11:07.102Z,7.00
2018-11-23T19:13:55.131Z,7.10
2018-11-23T19:16:42.692Z,7.10
2018-11-23T19:19:30.261Z,7.20
2018-11-23T19:22:17.806Z,7.10
2018-11-23T19:25:05.610Z,7.20
2018-11-23T19:27:53.177Z,7.20
2018-11-23T19:30:40.781Z,7.10
2018-11-23T19:33:28.347Z,7.20
2018-11-23T19:36:15.886Z,7.00
2018-11-23T19:39:03.898Z,7.10
2018-11-23T19:41:32.045Z,7.20
2018-11-23T19:44:19.821Z,7.20
2018-11-23T19:47:07.375Z,7.10
2018-11-23T19:49:55.150Z,7.10
2018-11-23T19:52:42.692Z,7.10
2018-11-23T19:55:30.390Z,7.10
2018-11-23T19:58:18.181Z,7.30
2018-11-23T20:01:05.955Z,7.30
2018-11-23T20:03:53.503Z,7.30
2018-11-23T20:06:42.827Z,7.30
2018-11-23T20:09:28.824Z,7.30
2018-11-23T20:12:16.511Z,7.30
2018-11-23T20:15:04.227Z,7.30
2018-11-23T20:17:52.058Z,7.30
2018-11-23T20:20:39.614Z,7.30
2018-11-23T20:23:11.252Z,7.30
2018-11-23T20:25:58.785Z,7.30
2018-11-23T20:28:46.595Z,7.30
2018-11-23T20:31:34.184Z,7.30
2018-11-23T20:34:21.745Z,7.50
2018-11-23T20:37:09.296Z,7.40
2018-11-23T20:39:37.401Z,7.40
2018-11-23T20:42:24.967Z,7.40
2018-11-23T20:45:12.846Z,7.40
2018-11-23T20:48:00.390Z,7.40
2018-11-23T20:50:47.993Z,7.60
2018-11-23T20:53:35.541Z,7.60
2018-11-23T20:56:23.114Z,7.50
2018-11-23T20:59:10.864Z,7.50
2018-11-23T21:01:58.403Z,7.50
2018-11-23T21:04:45.917Z,7.50
2018-11-23T21:07:33.532Z,7.60
2018-11-23T21:10:21.744Z,7.70
2018-11-23T21:13:09.275Z,7.70
2018-11-23T21:15:56.824Z,7.70
2018-11-23T21:18:44.381Z,7.70
2018-11-23T21:24:24.977Z,7.50
2018-11-23T21:27:12.492Z,7.70
2018-11-23T21:30:00.040Z,7.70
2018-11-23T21:32:47.830Z,7.70
2018-11-23T21:35:35.357Z,7.60
2018-11-23T21:38:22.912Z,7.70
2018-11-23T21:41:10.832Z,7.70
2018-11-23T21:43:58.418Z,7.70
2018-11-23T21:46:45.931Z,7.60
2018-11-23T21:49:33.463Z,7.50
2018-11-23T21:52:21.094Z,7.60
2018-11-23T21:55:09.619Z,7.60
2018-11-23T21:57:37.654Z,7.60
2018-11-23T22:00:25.200Z,7.50
2018-11-23T22:03:12.765Z,7.40
2018-11-23T22:05:40.828Z,7.40
2018-11-23T22:08:28.346Z,7.50
2018-11-23T22:11:15.936Z,7.60
2018-11-23T22:14:03.485Z,7.70
2018-11-23T22:16:51.096Z,7.70
2018-11-23T22:19:38.682Z,7.70
2018-11-23T22:22:26.213Z,7.60
2018-11-23T22:25:14.225Z,7.60
2018-11-23T22:28:02.023Z,7.80
2018-11-23T22:30:49.567Z,7.80
2018-11-23T22:33:37.264Z,7.80
2018-11-23T22:36:25.008Z,7.80
2018-11-23T22:39:12.560Z,7.70
2018-11-23T22:42:00.196Z,7.60
2018-11-23T22:44:47.800Z,7.50
2018-11-23T22:47:35.459Z,7.50
2018-11-23T22:50:03.651Z,7.60
2018-11-23T22:52:51.180Z,7.80
2018-11-23T22:55:38.718Z,7.90
2018-11-23T22:58:26.468Z,7.60
2018-11-23T23:01:13.996Z,7.60
2018-11-23T23:04:01.573Z,7.80
2018-11-23T23:06:49.360Z,7.70
2018-11-23T23:09:37.164Z,7.80
2018-11-23T23:12:24.680Z,7.70
2018-11-23T23:15:12.269Z,7.60
2018-11-23T23:17:59.878Z,7.50
2018-11-23T23:20:47.402Z,7.60
2018-11-23T23:23:35.187Z,7.30
2018-11-23T23:26:22.974Z,7.20
2018-11-23T23:29:10.484Z,7.30
2018-11-23T23:31:58.065Z,7.30
2018-11-23T23:34:45.621Z,7.30
2018-11-23T23:37:33.135Z,7.30
2018-11-23T23:40:20.700Z,7.50
2018-11-23T23:43:08.472Z,7.50
2018-11-23T23:45:56.061Z,7.40
2018-11-23T23:48:43.625Z,7.50
2018-11-23T23:51:31.565Z,7.40
2018-11-23T23:54:19.096Z,7.40
2018-11-23T23:57:06.632Z,7.40
2018-11-23T23:59:54.405Z,7.30
